TAF KDAN
KDAN 280537Z 2806/2906 24005KT P6SM SCT250 FM281700 27008G18KT P6SM SKC FM282300 29007KT P6SM SCT250 FM290300 31010KT P6SM SCT250=
METAR KDAN
WC KDAN
WS KDAN
WV KDAN